sensor_id;sensor_type;location;lat;lon;timestamp;pressure;altitude;pressure_sealevel;temperature;humidity
14689;BME280;7432;48.728;9.154;2024-03-17T00:01:46;143410.56;;;6.40;100.00
14689;BME280;7432;48.728;9.154;2024-03-17T00:04:13;143391.28;;;6.32;100.00
14689;BME280;7432;48.728;9.154;2024-03-17T00:06:39;143405.75;;;6.38;100.00
14689;BME280;7432;48.728;9.154;2024-03-17T00:09:06;143363.53;;;6.20;100.00
14689;BME280;7432;48.728;9.154;2024-03-17T00:11:31;143370.78;;;6.23;100.00
14689;BME280;7432;48.728;9.154;2024-03-17T00:13:58;143393.72;;;6.33;100.00
14689;BME280;7432;48.728;9.154;2024-03-17T00:16:23;143394.91;;;6.33;100.00
14689;BME280;7432;48.728;9.154;2024-03-17T00:18:49;143379.22;;;6.27;100.00
14689;BME280;7432;48.728;9.154;2024-03-17T00:21:15;143379.22;;;6.27;100.00
14689;BME280;7432;48.728;9.154;2024-03-17T00:23:42;143380.44;;;6.27;100.00
14689;BME280;7432;48.728;9.154;2024-03-17T00:26:08;143379.22;;;6.27;100.00
14689;BME280;7432;48.728;9.154;2024-03-17T00:28:34;143381.66;;;6.28;100.00
14689;BME280;7432;48.728;9.154;2024-03-17T00:31:02;143369.59;;;6.23;100.00
14689;BME280;7432;48.728;9.154;2024-03-17T00:33:29;143381.66;;;6.28;100.00
14689;BME280;7432;48.728;9.154;2024-03-17T00:35:54;143375.63;;;6.25;100.00
14689;BME280;7432;48.728;9.154;2024-03-17T00:38:21;143375.63;;;6.25;100.00
14689;BME280;7432;48.728;9.154;2024-03-17T00:40:47;143365.97;;;6.21;100.00
14689;BME280;7432;48.728;9.154;2024-03-17T00:43:14;143353.91;;;6.16;100.00
14689;BME280;7432;48.728;9.154;2024-03-17T00:45:39;143359.94;;;6.19;100.00
14689;BME280;7432;48.728;9.154;2024-03-17T00:48:06;143357.50;;;6.18;100.00
14689;BME280;7432;48.728;9.154;2024-03-17T00:50:31;143337.06;;;6.09;100.00
14689;BME280;7432;48.728;9.154;2024-03-17T00:52:58;143347.88;;;6.14;100.00
14689;BME280;7432;48.728;9.154;2024-03-17T00:55:23;143356.34;;;6.17;100.00
14689;BME280;7432;48.728;9.154;2024-03-17T00:57:51;143353.91;;;6.16;100.00
14689;BME280;7432;48.728;9.154;2024-03-17T01:00:18;143387.69;;;6.30;100.00
14689;BME280;7432;48.728;9.154;2024-03-17T01:02:43;143394.91;;;6.33;100.00
14689;BME280;7432;48.728;9.154;2024-03-17T01:05:10;143380.44;;;6.27;100.00
14689;BME280;7432;48.728;9.154;2024-03-17T01:07:36;143378.00;;;6.26;100.00
14689;BME280;7432;48.728;9.154;2024-03-17T01:10:02;143403.31;;;6.37;100.00
14689;BME280;7432;48.728;9.154;2024-03-17T01:12:28;143399.72;;;6.35;100.00
14689;BME280;7432;48.728;9.154;2024-03-17T01:14:55;143404.53;;;6.37;100.00
14689;BME280;7432;48.728;9.154;2024-03-17T01:17:21;143416.59;;;6.42;100.00
14689;BME280;7432;48.728;9.154;2024-03-17T01:19:47;143379.22;;;6.27;100.00
14689;BME280;7432;48.728;9.154;2024-03-17T01:22:12;143392.50;;;6.32;100.00
14689;BME280;7432;48.728;9.154;2024-03-17T01:24:39;143422.63;;;6.45;100.00
14689;BME280;7432;48.728;9.154;2024-03-17T01:27:07;143409.34;;;6.39;100.00
14689;BME280;7432;48.728;9.154;2024-03-17T01:29:39;143408.19;;;6.39;100.00
14689;BME280;7432;48.728;9.154;2024-03-17T01:32:06;143416.59;;;6.42;100.00
14689;BME280;7432;48.728;9.154;2024-03-17T01:34:32;143392.50;;;6.32;100.00
14689;BME280;7432;48.728;9.154;2024-03-17T01:36:58;143427.47;;;6.47;100.00
14689;BME280;7432;48.728;9.154;2024-03-17T01:39:24;143444.34;;;6.54;100.00
14689;BME280;7432;48.728;9.154;2024-03-17T01:41:50;143450.38;;;6.56;100.00
14689;BME280;7432;48.728;9.154;2024-03-17T01:44:22;143446.78;;;6.55;100.00
14689;BME280;7432;48.728;9.154;2024-03-17T01:46:48;143443.13;;;6.53;100.00
14689;BME280;7432;48.728;9.154;2024-03-17T01:49:16;143445.56;;;6.54;100.00
14689;BME280;7432;48.728;9.154;2024-03-17T01:51:42;143469.66;;;6.65;100.00
14689;BME280;7432;48.728;9.154;2024-03-17T01:54:08;143495.00;;;6.75;100.00
14689;BME280;7432;48.728;9.154;2024-03-17T01:56:34;143496.22;;;6.76;100.00
14689;BME280;7432;48.728;9.154;2024-03-17T01:59:01;143496.22;;;6.76;100.00
14689;BME280;7432;48.728;9.154;2024-03-17T02:01:26;143509.47;;;6.81;100.00
14689;BME280;7432;48.728;9.154;2024-03-17T02:03:53;143504.66;;;6.79;100.00
14689;BME280;7432;48.728;9.154;2024-03-17T02:06:19;143519.16;;;6.85;100.00
14689;BME280;7432;48.728;9.154;2024-03-17T02:08:47;143517.94;;;6.85;100.00
14689;BME280;7432;48.728;9.154;2024-03-17T02:11:23;143517.94;;;6.85;100.00
14689;BME280;7432;48.728;9.154;2024-03-17T02:13:51;143519.16;;;6.85;100.00
14689;BME280;7432;48.728;9.154;2024-03-17T02:16:16;143523.97;;;6.87;100.00
14689;BME280;7432;48.728;9.154;2024-03-17T02:18:44;143536.03;;;6.92;100.00
14689;BME280;7432;48.728;9.154;2024-03-17T02:21:09;143513.13;;;6.83;100.00
14689;BME280;7432;48.728;9.154;2024-03-17T02:23:37;143526.38;;;6.88;100.00
14689;BME280;7432;48.728;9.154;2024-03-17T02:26:02;143527.56;;;6.89;100.00
14689;BME280;7432;48.728;9.154;2024-03-17T02:28:38;143543.25;;;6.95;100.00
14689;BME280;7432;48.728;9.154;2024-03-17T02:31:04;143552.94;;;6.99;100.00
14689;BME280;7432;48.728;9.154;2024-03-17T02:33:30;143554.09;;;7.00;100.00
14689;BME280;7432;48.728;9.154;2024-03-17T02:35:56;143542.06;;;6.95;100.00
14689;BME280;7432;48.728;9.154;2024-03-17T02:38:22;143539.66;;;6.94;100.00
14689;BME280;7432;48.728;9.154;2024-03-17T02:41:04;143540.84;;;6.94;100.00
14689;BME280;7432;48.728;9.154;2024-03-17T02:43:30;143544.47;;;6.96;100.00
14689;BME280;7432;48.728;9.154;2024-03-17T02:45:56;143523.97;;;6.87;100.00
14689;BME280;7432;48.728;9.154;2024-03-17T02:48:23;143502.22;;;6.78;100.00
14689;BME280;7432;48.728;9.154;2024-03-17T02:50:50;143519.16;;;6.85;100.00
14689;BME280;7432;48.728;9.154;2024-03-17T02:53:16;143515.50;;;6.84;100.00
14689;BME280;7432;48.728;9.154;2024-03-17T02:55:43;143486.59;;;6.72;100.00
14689;BME280;7432;48.728;9.154;2024-03-17T02:58:10;143522.75;;;6.87;100.00
14689;BME280;7432;48.728;9.154;2024-03-17T03:00:37;143490.19;;;6.73;100.00
14689;BME280;7432;48.728;9.154;2024-03-17T03:03:04;143476.91;;;6.68;100.00
14689;BME280;7432;48.728;9.154;2024-03-17T03:05:30;143473.31;;;6.66;100.00
14689;BME280;7432;48.728;9.154;2024-03-17T03:07:57;143473.31;;;6.66;100.00
14689;BME280;7432;48.728;9.154;2024-03-17T03:10:24;143446.78;;;6.55;100.00
14689;BME280;7432;48.728;9.154;2024-03-17T03:12:50;143456.41;;;6.59;100.00
14689;BME280;7432;48.728;9.154;2024-03-17T03:15:18;143451.59;;;6.57;100.00
14689;BME280;7432;48.728;9.154;2024-03-17T03:17:44;143435.88;;;6.50;100.00
14689;BME280;7432;48.728;9.154;2024-03-17T03:20:10;143416.59;;;6.42;100.00
14689;BME280;7432;48.728;9.154;2024-03-17T03:22:39;143382.88;;;6.28;100.00
14689;BME280;7432;48.728;9.154;2024-03-17T03:25:06;143392.50;;;6.32;100.00
14689;BME280;7432;48.728;9.154;2024-03-17T03:27:32;143421.44;;;6.44;100.00
14689;BME280;7432;48.728;9.154;2024-03-17T03:29:59;143411.78;;;6.40;100.00
14689;BME280;7432;48.728;9.154;2024-03-17T03:32:27;143397.31;;;6.34;100.00
14689;BME280;7432;48.728;9.154;2024-03-17T03:34:53;143370.78;;;6.23;100.00
14689;BME280;7432;48.728;9.154;2024-03-17T03:37:19;143364.75;;;6.21;100.00
14689;BME280;7432;48.728;9.154;2024-03-17T03:39:46;143361.16;;;6.19;100.00
14689;BME280;7432;48.728;9.154;2024-03-17T03:42:12;143347.88;;;6.14;100.00
14689;BME280;7432;48.728;9.154;2024-03-17T03:44:38;143369.59;;;6.23;100.00
14689;BME280;7432;48.728;9.154;2024-03-17T03:47:05;143356.34;;;6.17;100.00
14689;BME280;7432;48.728;9.154;2024-03-17T03:49:33;143372.00;;;6.24;100.00
14689;BME280;7432;48.728;9.154;2024-03-17T03:51:59;143358.72;;;6.18;100.00
14689;BME280;7432;48.728;9.154;2024-03-17T03:54:25;143343.06;;;6.12;100.00
14689;BME280;7432;48.728;9.154;2024-03-17T03:56:52;143346.66;;;6.13;100.00
14689;BME280;7432;48.728;9.154;2024-03-17T03:59:19;143352.69;;;6.16;100.00
14689;BME280;7432;48.728;9.154;2024-03-17T04:01:46;143357.50;;;6.18;100.00
14689;BME280;7432;48.728;9.154;2024-03-17T04:04:14;143365.97;;;6.21;100.00
14689;BME280;7432;48.728;9.154;2024-03-17T04:06:42;143381.66;;;6.28;100.00
14689;BME280;7432;48.728;9.154;2024-03-17T04:09:08;143335.84;;;6.09;100.00
14689;BME280;7432;48.728;9.154;2024-03-17T04:11:35;143352.69;;;6.16;100.00
14689;BME280;7432;48.728;9.154;2024-03-17T04:14:01;143363.53;;;6.20;100.00
14689;BME280;7432;48.728;9.154;2024-03-17T04:16:28;143392.50;;;6.32;100.00
14689;BME280;7432;48.728;9.154;2024-03-17T04:18:56;143381.66;;;6.28;100.00
14689;BME280;7432;48.728;9.154;2024-03-17T04:21:23;143394.91;;;6.33;100.00
14689;BME280;7432;48.728;9.154;2024-03-17T04:23:50;143391.28;;;6.32;100.00
14689;BME280;7432;48.728;9.154;2024-03-17T04:26:17;143405.75;;;6.38;100.00
14689;BME280;7432;48.728;9.154;2024-03-17T04:28:43;143394.91;;;6.33;100.00
14689;BME280;7432;48.728;9.154;2024-03-17T04:31:10;143405.75;;;6.38;100.00
14689;BME280;7432;48.728;9.154;2024-03-17T04:33:37;143404.53;;;6.37;100.00
14689;BME280;7432;48.728;9.154;2024-03-17T04:36:03;143381.66;;;6.28;100.00
14689;BME280;7432;48.728;9.154;2024-03-17T04:38:30;143388.91;;;6.31;100.00
14689;BME280;7432;48.728;9.154;2024-03-17T04:40:58;143386.47;;;6.30;100.00
14689;BME280;7432;48.728;9.154;2024-03-17T04:43:30;143385.25;;;6.29;100.00
14689;BME280;7432;48.728;9.154;2024-03-17T04:46:04;143381.66;;;6.28;100.00
14689;BME280;7432;48.728;9.154;2024-03-17T04:48:33;143380.44;;;6.27;100.00
14689;BME280;7432;48.728;9.154;2024-03-17T04:50:59;143352.69;;;6.16;100.00
14689;BME280;7432;48.728;9.154;2024-03-17T04:53:26;143387.69;;;6.30;100.00
14689;BME280;7432;48.728;9.154;2024-03-17T04:56:04;143351.47;;;6.15;100.00
14689;BME280;7432;48.728;9.154;2024-03-17T04:58:31;143350.31;;;6.15;100.00
14689;BME280;7432;48.728;9.154;2024-03-17T05:01:03;143343.06;;;6.12;100.00
14689;BME280;7432;48.728;9.154;2024-03-17T05:03:29;143352.69;;;6.16;100.00
14689;BME280;7432;48.728;9.154;2024-03-17T05:05:59;143333.41;;;6.08;100.00
14689;BME280;7432;48.728;9.154;2024-03-17T05:08:28;143306.88;;;5.96;100.00
14689;BME280;7432;48.728;9.154;2024-03-17T05:10:58;143300.84;;;5.94;100.00
14689;BME280;7432;48.728;9.154;2024-03-17T05:13:27;143288.81;;;5.89;100.00
14689;BME280;7432;48.728;9.154;2024-03-17T05:15:53;143268.28;;;5.80;100.00
14689;BME280;7432;48.728;9.154;2024-03-17T05:18:20;143276.72;;;5.84;100.00
14689;BME280;7432;48.728;9.154;2024-03-17T05:20:48;143292.41;;;5.90;100.00
14689;BME280;7432;48.728;9.154;2024-03-17T05:23:22;143291.25;;;5.90;100.00
14689;BME280;7432;48.728;9.154;2024-03-17T05:25:51;143309.31;;;5.97;100.00
14689;BME280;7432;48.728;9.154;2024-03-17T05:28:17;143308.09;;;5.97;100.00
14689;BME280;7432;48.728;9.154;2024-03-17T05:30:45;143297.25;;;5.92;100.00
14689;BME280;7432;48.728;9.154;2024-03-17T05:33:11;143316.53;;;6.01;100.00
14689;BME280;7432;48.728;9.154;2024-03-17T05:35:37;143341.88;;;6.11;100.00
14689;BME280;7432;48.728;9.154;2024-03-17T05:38:04;143328.59;;;6.06;100.00
14689;BME280;7432;48.728;9.154;2024-03-17T05:40:30;143339.44;;;6.10;100.00
14689;BME280;7432;48.728;9.154;2024-03-17T05:42:57;143349.09;;;6.14;100.00
14689;BME280;7432;48.728;9.154;2024-03-17T05:45:25;143321.34;;;6.03;100.00
14689;BME280;7432;48.728;9.154;2024-03-17T05:47:52;143337.06;;;6.09;100.00
14689;BME280;7432;48.728;9.154;2024-03-17T05:50:19;143349.09;;;6.14;100.00
14689;BME280;7432;48.728;9.154;2024-03-17T05:52:45;143363.53;;;6.20;100.00
14689;BME280;7432;48.728;9.154;2024-03-17T05:55:13;143368.38;;;6.22;100.00
14689;BME280;7432;48.728;9.154;2024-03-17T05:57:39;143368.38;;;6.22;100.00
14689;BME280;7432;48.728;9.154;2024-03-17T06:00:07;143375.63;;;6.25;100.00
14689;BME280;7432;48.728;9.154;2024-03-17T06:02:33;143363.53;;;6.20;100.00
14689;BME280;7432;48.728;9.154;2024-03-17T06:05:01;143373.19;;;6.24;100.00
14689;BME280;7432;48.728;9.154;2024-03-17T06:07:29;143384.03;;;6.29;100.00
14689;BME280;7432;48.728;9.154;2024-03-17T06:09:55;143381.66;;;6.28;100.00
14689;BME280;7432;48.728;9.154;2024-03-17T06:12:22;143367.19;;;6.22;100.00
14689;BME280;7432;48.728;9.154;2024-03-17T06:14:48;143369.59;;;6.23;100.00
14689;BME280;7432;48.728;9.154;2024-03-17T06:17:15;143410.56;;;6.40;100.00
14689;BME280;7432;48.728;9.154;2024-03-17T06:19:41;143467.28;;;6.64;100.00
14689;BME280;7432;48.728;9.154;2024-03-17T06:22:09;143533.59;;;6.91;100.00
14689;BME280;7432;48.728;9.154;2024-03-17T06:24:36;143596.34;;;7.18;100.00
14689;BME280;7432;48.728;9.154;2024-03-17T06:27:03;143622.91;;;7.29;99.91
14689;BME280;7432;48.728;9.154;2024-03-17T06:29:32;143696.56;;;7.59;98.95
14689;BME280;7432;48.728;9.154;2024-03-17T06:31:58;143766.56;;;7.89;98.03
14689;BME280;7432;48.728;9.154;2024-03-17T06:34:25;143806.41;;;8.05;96.96
14689;BME280;7432;48.728;9.154;2024-03-17T06:36:51;143851.09;;;8.24;96.96
14689;BME280;7432;48.728;9.154;2024-03-17T06:39:19;143921.19;;;8.53;94.64
14689;BME280;7432;48.728;9.154;2024-03-17T06:41:46;143955.03;;;8.67;93.24
14689;BME280;7432;48.728;9.154;2024-03-17T06:44:12;143998.50;;;8.85;93.55
14689;BME280;7432;48.728;9.154;2024-03-17T06:46:39;143981.59;;;8.78;92.59
14689;BME280;7432;48.728;9.154;2024-03-17T06:49:05;144021.47;;;8.95;92.44
14689;BME280;7432;48.728;9.154;2024-03-17T06:51:32;144054.13;;;9.09;91.85
14689;BME280;7432;48.728;9.154;2024-03-17T06:53:58;144131.47;;;9.41;91.57
14689;BME280;7432;48.728;9.154;2024-03-17T06:56:26;144170.16;;;9.57;89.88
14689;BME280;7432;48.728;9.154;2024-03-17T06:58:53;144311.72;;;10.16;88.83
14689;BME280;7432;48.728;9.154;2024-03-17T07:01:19;144314.13;;;10.17;87.39
14689;BME280;7432;48.728;9.154;2024-03-17T07:03:46;144322.59;;;10.21;87.20
14689;BME280;7432;48.728;9.154;2024-03-17T07:06:12;144437.53;;;10.68;85.39
14689;BME280;7432;48.728;9.154;2024-03-17T07:08:39;144452.06;;;10.75;84.54
14689;BME280;7432;48.728;9.154;2024-03-17T07:11:06;144521.06;;;11.03;84.67
14689;BME280;7432;48.728;9.154;2024-03-17T07:13:35;144579.19;;;11.27;84.78
14689;BME280;7432;48.728;9.154;2024-03-17T07:16:04;144654.22;;;11.59;80.85
14689;BME280;7432;48.728;9.154;2024-03-17T07:18:32;144646.97;;;11.56;79.92
14689;BME280;7432;48.728;9.154;2024-03-17T07:21:00;144619.16;;;11.44;79.93
14689;BME280;7432;48.728;9.154;2024-03-17T07:23:27;144551.31;;;11.16;80.88
14689;BME280;7432;48.728;9.154;2024-03-17T07:25:55;144590.06;;;11.32;80.88
14689;BME280;7432;48.728;9.154;2024-03-17T07:28:22;144581.56;;;11.28;80.60
14689;BME280;7432;48.728;9.154;2024-03-17T07:30:52;144632.47;;;11.50;80.25
14689;BME280;7432;48.728;9.154;2024-03-17T07:33:19;144722.13;;;11.87;79.70
14689;BME280;7432;48.728;9.154;2024-03-17T07:35:47;144787.53;;;12.14;79.63
14689;BME280;7432;48.728;9.154;2024-03-17T07:38:14;144828.75;;;12.31;77.65
14689;BME280;7432;48.728;9.154;2024-03-17T07:40:41;144868.75;;;12.48;76.38
14689;BME280;7432;48.728;9.154;2024-03-17T07:43:07;144852.97;;;12.41;76.97
14689;BME280;7432;48.728;9.154;2024-03-17T07:45:33;144976.59;;;12.93;75.18
14689;BME280;7432;48.728;9.154;2024-03-17T07:48:01;145148.88;;;13.64;73.25
14689;BME280;7432;48.728;9.154;2024-03-17T07:50:28;145304.16;;;14.29;68.93
14689;BME280;7432;48.728;9.154;2024-03-17T07:52:54;145530.03;;;15.23;66.66
14689;BME280;7432;48.728;9.154;2024-03-17T07:55:20;145669.78;;;15.81;64.18
14689;BME280;7432;48.728;9.154;2024-03-17T07:57:47;145621.19;;;15.61;64.81
14689;BME280;7432;48.728;9.154;2024-03-17T08:00:14;145502.09;;;15.11;64.91
14689;BME280;7432;48.728;9.154;2024-03-17T08:02:42;145420.75;;;14.77;66.66
14689;BME280;7432;48.728;9.154;2024-03-17T08:05:10;145391.59;;;14.65;67.76
14689;BME280;7432;48.728;9.154;2024-03-17T08:07:36;145321.22;;;14.36;68.20
14689;BME280;7432;48.728;9.154;2024-03-17T08:10:03;145261.72;;;14.11;68.91
14689;BME280;7432;48.728;9.154;2024-03-17T08:12:30;145288.41;;;14.22;68.78
14689;BME280;7432;48.728;9.154;2024-03-17T08:14:56;145284.75;;;14.21;68.92
14689;BME280;7432;48.728;9.154;2024-03-17T08:17:23;145255.63;;;14.09;68.17
14689;BME280;7432;48.728;9.154;2024-03-17T08:19:49;145271.38;;;14.15;68.71
14689;BME280;7432;48.728;9.154;2024-03-17T08:22:17;145423.16;;;14.78;67.16
14689;BME280;7432;48.728;9.154;2024-03-17T08:24:43;145502.09;;;15.11;64.33
14689;BME280;7432;48.728;9.154;2024-03-17T08:27:09;145502.09;;;15.11;63.65
14689;BME280;7432;48.728;9.154;2024-03-17T08:29:36;145485.13;;;15.04;63.87
14689;BME280;7432;48.728;9.154;2024-03-17T08:32:02;145458.41;;;14.93;64.20
14689;BME280;7432;48.728;9.154;2024-03-17T08:34:28;145340.63;;;14.44;65.11
14689;BME280;7432;48.728;9.154;2024-03-17T08:36:55;145442.59;;;14.87;64.71
14689;BME280;7432;48.728;9.154;2024-03-17T08:39:23;145457.16;;;14.93;63.74
14689;BME280;7432;48.728;9.154;2024-03-17T08:41:49;145545.84;;;15.29;62.80
14689;BME280;7432;48.728;9.154;2024-03-17T08:44:16;145643.06;;;15.70;62.94
14689;BME280;7432;48.728;9.154;2024-03-17T08:46:42;145822.94;;;16.44;61.07
14689;BME280;7432;48.728;9.154;2024-03-17T08:49:09;145967.69;;;17.04;59.51
14689;BME280;7432;48.728;9.154;2024-03-17T08:51:35;145929.94;;;16.89;57.87
14689;BME280;7432;48.728;9.154;2024-03-17T08:54:02;146241.47;;;18.18;55.61
14689;BME280;7432;48.728;9.154;2024-03-17T08:56:30;146480.19;;;19.17;53.03
14689;BME280;7432;48.728;9.154;2024-03-17T08:58:56;146413.19;;;18.89;52.78
14689;BME280;7432;48.728;9.154;2024-03-17T09:01:23;146424.13;;;18.93;52.13
14689;BME280;7432;48.728;9.154;2024-03-17T09:03:49;146282.88;;;18.35;52.01
14689;BME280;7432;48.728;9.154;2024-03-17T09:06:17;146236.59;;;18.16;52.52
14689;BME280;7432;48.728;9.154;2024-03-17T09:08:45;146281.63;;;18.34;51.84
14689;BME280;7432;48.728;9.154;2024-03-17T09:11:12;146342.56;;;18.60;51.34
14689;BME280;7432;48.728;9.154;2024-03-17T09:13:40;146203.75;;;18.02;53.39
14689;BME280;7432;48.728;9.154;2024-03-17T09:16:08;146167.22;;;17.87;53.88
14689;BME280;7432;48.728;9.154;2024-03-17T09:18:36;146191.56;;;17.97;51.92
14689;BME280;7432;48.728;9.154;2024-03-17T09:21:04;146236.59;;;18.16;50.79
14689;BME280;7432;48.728;9.154;2024-03-17T09:23:31;146085.72;;;17.53;52.27
14689;BME280;7432;48.728;9.154;2024-03-17T09:26:00;146344.97;;;18.61;51.24
14689;BME280;7432;48.728;9.154;2024-03-17T09:28:27;146369.34;;;18.71;48.99
14689;BME280;7432;48.728;9.154;2024-03-17T09:30:56;146317.00;;;18.49;47.97
14689;BME280;7432;48.728;9.154;2024-03-17T09:33:24;146404.66;;;18.85;47.78
14689;BME280;7432;48.728;9.154;2024-03-17T09:35:54;146145.34;;;17.78;44.74
14689;BME280;7432;48.728;9.154;2024-03-17T09:38:21;146164.81;;;17.86;45.91
14689;BME280;7432;48.728;9.154;2024-03-17T09:40:48;146004.16;;;17.19;47.26
14689;BME280;7432;48.728;9.154;2024-03-17T09:43:16;146027.28;;;17.29;46.87
14689;BME280;7432;48.728;9.154;2024-03-17T09:45:43;145929.94;;;16.89;47.21
14689;BME280;7432;48.728;9.154;2024-03-17T09:48:14;145816.88;;;16.42;48.07
14689;BME280;7432;48.728;9.154;2024-03-17T09:50:40;145801.03;;;16.35;48.75
14689;BME280;7432;48.728;9.154;2024-03-17T09:53:15;145709.91;;;15.97;47.05
14689;BME280;7432;48.728;9.154;2024-03-17T09:55:42;145604.19;;;15.54;49.23
14689;BME280;7432;48.728;9.154;2024-03-17T09:58:15;145570.13;;;15.39;50.71
14689;BME280;7432;48.728;9.154;2024-03-17T10:00:41;145554.31;;;15.33;50.59
14689;BME280;7432;48.728;9.154;2024-03-17T10:03:07;145618.78;;;15.60;49.64
14689;BME280;7432;48.728;9.154;2024-03-17T10:05:35;145605.41;;;15.54;51.34
14689;BME280;7432;48.728;9.154;2024-03-17T10:08:02;145582.25;;;15.44;50.45
14689;BME280;7432;48.728;9.154;2024-03-17T10:10:28;145493.63;;;15.08;51.31
14689;BME280;7432;48.728;9.154;2024-03-17T10:12:55;145485.13;;;15.04;52.75
14689;BME280;7432;48.728;9.154;2024-03-17T10:15:21;145570.13;;;15.39;52.27
14689;BME280;7432;48.728;9.154;2024-03-17T10:17:48;145572.56;;;15.40;51.50
14689;BME280;7432;48.728;9.154;2024-03-17T10:20:16;145459.63;;;14.94;53.45
14689;BME280;7432;48.728;9.154;2024-03-17T10:23:01;145510.59;;;15.15;52.67
14689;BME280;7432;48.728;9.154;2024-03-17T10:25:29;145589.59;;;15.48;52.18
14689;BME280;7432;48.728;9.154;2024-03-17T10:27:56;145613.88;;;15.58;50.52
14689;BME280;7432;48.728;9.154;2024-03-17T10:30:24;145571.34;;;15.40;50.19
14689;BME280;7432;48.728;9.154;2024-03-17T10:32:57;145544.63;;;15.29;49.86
14689;BME280;7432;48.728;9.154;2024-03-17T10:35:30;145560.38;;;15.35;49.92
14689;BME280;7432;48.728;9.154;2024-03-17T10:37:59;145590.81;;;15.48;49.67
14689;BME280;7432;48.728;9.154;2024-03-17T10:40:28;145640.63;;;15.69;48.90
14689;BME280;7432;48.728;9.154;2024-03-17T10:42:56;145675.88;;;15.83;49.84
14689;BME280;7432;48.728;9.154;2024-03-17T10:45:23;145679.50;;;15.85;49.12
14689;BME280;7432;48.728;9.154;2024-03-17T10:47:52;145679.50;;;15.85;49.54
14689;BME280;7432;48.728;9.154;2024-03-17T10:50:19;145692.84;;;15.90;49.42
14689;BME280;7432;48.728;9.154;2024-03-17T10:52:47;145741.50;;;16.11;49.16
14689;BME280;7432;48.728;9.154;2024-03-17T10:55:26;145756.09;;;16.17;48.73
14689;BME280;7432;48.728;9.154;2024-03-17T10:57:53;145748.78;;;16.14;48.93
14689;BME280;7432;48.728;9.154;2024-03-17T11:00:23;145726.91;;;16.05;49.88
14689;BME280;7432;48.728;9.154;2024-03-17T11:02:54;145734.19;;;16.08;49.73
14689;BME280;7432;48.728;9.154;2024-03-17T11:05:23;145787.69;;;16.30;50.89
14689;BME280;7432;48.728;9.154;2024-03-17T11:07:51;145844.84;;;16.53;50.93
14689;BME280;7432;48.728;9.154;2024-03-17T11:10:21;145785.22;;;16.29;52.23
14689;BME280;7432;48.728;9.154;2024-03-17T11:12:51;145802.28;;;16.36;51.85
14689;BME280;7432;48.728;9.154;2024-03-17T11:15:39;145775.53;;;16.25;50.44
14689;BME280;7432;48.728;9.154;2024-03-17T11:18:29;145763.38;;;16.20;50.80
14689;BME280;7432;48.728;9.154;2024-03-17T11:20:57;145754.84;;;16.16;51.07
14689;BME280;7432;48.728;9.154;2024-03-17T11:23:26;145750.00;;;16.14;51.31
14689;BME280;7432;48.728;9.154;2024-03-17T11:25:54;145726.91;;;16.05;50.64
14689;BME280;7432;48.728;9.154;2024-03-17T11:31:42;145739.03;;;16.10;50.97
14689;BME280;7432;48.728;9.154;2024-03-17T11:34:26;145746.34;;;16.13;51.77
14689;BME280;7432;48.728;9.154;2024-03-17T11:36:54;145793.75;;;16.32;51.73
14689;BME280;7432;48.728;9.154;2024-03-17T11:39:20;145831.41;;;16.48;50.84
14689;BME280;7432;48.728;9.154;2024-03-17T11:41:51;145839.94;;;16.51;50.30
14689;BME280;7432;48.728;9.154;2024-03-17T11:44:24;145811.97;;;16.40;50.93
14689;BME280;7432;48.728;9.154;2024-03-17T11:46:54;145829.03;;;16.47;51.87
14689;BME280;7432;48.728;9.154;2024-03-17T11:49:21;145785.22;;;16.29;52.35
14689;BME280;7432;48.728;9.154;2024-03-17T11:51:49;145664.94;;;15.79;52.31
14689;BME280;7432;48.728;9.154;2024-03-17T11:54:16;145571.34;;;15.40;53.26
14689;BME280;7432;48.728;9.154;2024-03-17T11:56:48;145555.53;;;15.33;53.86
14689;BME280;7432;48.728;9.154;2024-03-17T11:59:14;145588.38;;;15.47;54.37
14689;BME280;7432;48.728;9.154;2024-03-17T12:01:43;145632.16;;;15.65;55.58
14689;BME280;7432;48.728;9.154;2024-03-17T12:04:12;145663.72;;;15.78;55.32
14689;BME280;7432;48.728;9.154;2024-03-17T12:06:39;145664.94;;;15.79;54.13
14689;BME280;7432;48.728;9.154;2024-03-17T12:09:08;145649.13;;;15.72;53.04
14689;BME280;7432;48.728;9.154;2024-03-17T12:11:36;145645.50;;;15.71;53.60
14689;BME280;7432;48.728;9.154;2024-03-17T12:14:12;145692.84;;;15.90;53.67
14689;BME280;7432;48.728;9.154;2024-03-17T12:16:46;145764.56;;;16.20;51.30
14689;BME280;7432;48.728;9.154;2024-03-17T12:19:14;145758.47;;;16.18;50.86
14689;BME280;7432;48.728;9.154;2024-03-17T12:21:43;145760.94;;;16.19;52.08
14689;BME280;7432;48.728;9.154;2024-03-17T12:24:14;145681.94;;;15.86;52.31
14689;BME280;7432;48.728;9.154;2024-03-17T12:26:42;145685.56;;;15.87;52.90
14689;BME280;7432;48.728;9.154;2024-03-17T12:29:22;145706.22;;;15.96;53.43
14689;BME280;7432;48.728;9.154;2024-03-17T12:31:50;145703.81;;;15.95;52.70
14689;BME280;7432;48.728;9.154;2024-03-17T12:34:18;145700.16;;;15.93;55.09
14689;BME280;7432;48.728;9.154;2024-03-17T12:36:44;145726.91;;;16.05;52.50
14689;BME280;7432;48.728;9.154;2024-03-17T12:39:11;145769.44;;;16.22;52.44
14689;BME280;7432;48.728;9.154;2024-03-17T12:41:37;145810.75;;;16.39;52.35
14689;BME280;7432;48.728;9.154;2024-03-17T12:44:03;145810.75;;;16.39;51.60
14689;BME280;7432;48.728;9.154;2024-03-17T12:46:30;145768.22;;;16.22;50.56
14689;BME280;7432;48.728;9.154;2024-03-17T12:48:59;145734.19;;;16.08;50.94
14689;BME280;7432;48.728;9.154;2024-03-17T12:51:27;145734.19;;;16.08;50.37
14689;BME280;7432;48.728;9.154;2024-03-17T12:54:11;145701.38;;;15.94;50.56
14689;BME280;7432;48.728;9.154;2024-03-17T12:56:38;145712.31;;;15.98;50.25
14689;BME280;7432;48.728;9.154;2024-03-17T12:59:22;145708.69;;;15.97;49.61
14689;BME280;7432;48.728;9.154;2024-03-17T13:02:02;145739.03;;;16.10;51.08
14689;BME280;7432;48.728;9.154;2024-03-17T13:04:29;145735.41;;;16.08;52.16
14689;BME280;7432;48.728;9.154;2024-03-17T13:06:56;145737.88;;;16.09;50.22